createdAt,value
2022-07-28T00:00:08.562Z,0.80
2022-07-28T00:01:08.137Z,1.00
2022-07-28T00:02:08.226Z,1.10
2022-07-28T00:03:08.169Z,0.90
2022-07-28T00:04:08.105Z,1.00
2022-07-28T00:05:08.108Z,0.90
2022-07-28T00:06:08.101Z,1.30
2022-07-28T00:07:08.060Z,1.00
2022-07-28T00:08:08.081Z,1.20
2022-07-28T00:09:08.053Z,1.00
2022-07-28T00:10:08.016Z,1.00
2022-07-28T00:11:08.797Z,1.10
2022-07-28T00:12:07.991Z,1.00
2022-07-28T00:13:08.013Z,1.00
2022-07-28T00:14:07.984Z,1.10
2022-07-28T00:15:07.981Z,1.20
2022-07-28T00:16:07.996Z,1.40
2022-07-28T00:17:08.001Z,1.10
2022-07-28T00:18:07.937Z,1.10
2022-07-28T00:19:07.924Z,1.00
2022-07-28T00:20:07.895Z,1.00
2022-07-28T00:21:07.890Z,1.10
2022-07-28T00:22:07.924Z,1.10
2022-07-28T00:23:07.897Z,0.90
2022-07-28T00:24:07.875Z,1.00
2022-07-28T00:25:07.833Z,1.20
2022-07-28T00:26:07.843Z,1.00
2022-07-28T00:27:07.844Z,1.10
2022-07-28T00:28:07.788Z,1.10
2022-07-28T00:29:07.780Z,1.20
2022-07-28T00:30:07.770Z,1.00
2022-07-28T00:31:09.948Z,1.00
2022-07-28T00:32:07.822Z,1.10
2022-07-28T00:33:07.757Z,0.90
2022-07-28T00:34:07.720Z,1.00
2022-07-28T00:35:08.310Z,1.10
2022-07-28T00:36:10.407Z,1.00
2022-07-28T00:37:07.730Z,1.00
2022-07-28T00:38:07.689Z,1.00
2022-07-28T00:39:07.693Z,0.90
2022-07-28T00:40:07.654Z,1.10
2022-07-28T00:41:07.627Z,1.00
2022-07-28T00:42:07.611Z,1.20
2022-07-28T00:43:07.597Z,1.10
2022-07-28T00:44:07.606Z,1.10
2022-07-28T00:45:07.694Z,1.00
2022-07-28T00:46:07.627Z,1.10
2022-07-28T00:47:07.558Z,0.80
2022-07-28T00:48:07.545Z,1.20
2022-07-28T00:49:07.624Z,1.20
2022-07-28T00:50:07.513Z,1.20
2022-07-28T00:51:07.497Z,1.00
2022-07-28T00:52:07.481Z,1.10
2022-07-28T00:53:07.480Z,1.10
2022-07-28T00:54:07.446Z,1.00
2022-07-28T00:55:07.475Z,1.00
2022-07-28T00:56:07.449Z,1.20
2022-07-28T00:57:07.415Z,1.00
2022-07-28T00:58:07.407Z,0.90
2022-07-28T00:59:07.487Z,1.50
2022-07-28T01:00:07.389Z,0.90
2022-07-28T01:01:07.349Z,0.90
2022-07-28T01:02:07.514Z,1.10
2022-07-28T01:03:07.432Z,1.10
2022-07-28T01:04:07.354Z,1.20
2022-07-28T01:05:07.327Z,0.90
2022-07-28T01:06:07.315Z,1.10
2022-07-28T01:07:07.287Z,0.90
2022-07-28T01:08:07.291Z,0.90
2022-07-28T01:09:07.255Z,1.10
2022-07-28T01:10:07.232Z,1.00
2022-07-28T01:11:07.260Z,1.20
2022-07-28T01:12:07.255Z,1.00
2022-07-28T01:13:07.230Z,0.70
2022-07-28T01:14:07.195Z,1.00
2022-07-28T01:15:07.205Z,1.00
2022-07-28T01:16:07.288Z,1.00
2022-07-28T01:17:07.175Z,1.30
2022-07-28T01:18:07.152Z,1.00
2022-07-28T01:19:07.150Z,0.90
2022-07-28T01:20:07.238Z,1.00
2022-07-28T01:21:07.092Z,1.20
2022-07-28T01:22:07.102Z,0.90
2022-07-28T01:23:07.073Z,1.20
2022-07-28T01:24:07.077Z,1.50
2022-07-28T01:25:07.055Z,1.00
2022-07-28T01:26:07.044Z,1.10
2022-07-28T01:27:07.061Z,1.20
2022-07-28T01:28:07.022Z,1.30
2022-07-28T01:29:07.033Z,1.10
2022-07-28T01:30:06.970Z,1.10
2022-07-28T01:31:07.115Z,0.90
2022-07-28T01:32:06.950Z,0.90
2022-07-28T01:33:06.932Z,1.30
2022-07-28T01:34:06.937Z,1.30
2022-07-28T01:35:06.897Z,1.00
2022-07-28T01:36:06.902Z,0.90
2022-07-28T01:37:06.922Z,0.90
2022-07-28T01:38:06.901Z,0.90
2022-07-28T01:39:06.856Z,0.90
2022-07-28T01:40:06.869Z,0.90
2022-07-28T01:41:06.849Z,1.20
2022-07-28T01:42:06.836Z,1.20
2022-07-28T01:43:06.832Z,1.40
2022-07-28T01:44:06.811Z,1.00
2022-07-28T01:45:06.778Z,1.70
2022-07-28T01:46:06.858Z,1.30
2022-07-28T01:47:06.766Z,1.20
2022-07-28T01:48:06.758Z,0.90
2022-07-28T01:49:06.860Z,1.10
2022-07-28T01:50:06.754Z,0.90
2022-07-28T01:51:06.766Z,1.20
2022-07-28T01:52:06.685Z,1.20
2022-07-28T01:53:06.689Z,1.00
2022-07-28T01:54:06.656Z,1.00
2022-07-28T01:55:06.691Z,1.20
2022-07-28T01:56:06.665Z,1.20
2022-07-28T01:57:06.672Z,1.00
2022-07-28T01:58:06.608Z,0.90
2022-07-28T01:59:06.593Z,1.10
2022-07-28T02:00:06.688Z,1.20
2022-07-28T02:01:06.608Z,1.00
2022-07-28T02:02:06.726Z,1.00
2022-07-28T02:03:06.561Z,1.00
2022-07-28T02:04:06.542Z,0.80
2022-07-28T02:05:06.579Z,0.90
2022-07-28T02:06:06.531Z,1.20
2022-07-28T02:07:06.494Z,1.10
2022-07-28T02:08:06.480Z,1.00
2022-07-28T02:09:06.442Z,1.00
2022-07-28T02:10:06.502Z,1.00
2022-07-28T02:11:09.880Z,1.10
2022-07-28T02:12:06.442Z,0.90
2022-07-28T02:13:06.425Z,0.80
2022-07-28T02:14:06.386Z,0.80
2022-07-28T02:15:06.388Z,0.90
2022-07-28T02:16:06.424Z,1.20
2022-07-28T02:17:06.346Z,0.90
2022-07-28T02:18:06.361Z,1.00
2022-07-28T02:19:06.326Z,1.30
2022-07-28T02:20:06.330Z,0.90
2022-07-28T02:21:06.323Z,1.30
2022-07-28T02:22:06.330Z,0.90
2022-07-28T02:23:06.281Z,0.90
2022-07-28T02:24:06.270Z,1.10
2022-07-28T02:25:06.261Z,1.10
2022-07-28T02:26:06.263Z,0.90
2022-07-28T02:27:06.240Z,1.10
2022-07-28T02:28:06.236Z,1.00
2022-07-28T02:29:06.214Z,1.30
2022-07-28T02:30:06.178Z,0.90
2022-07-28T02:31:06.261Z,0.90
2022-07-28T02:32:06.185Z,1.20
2022-07-28T02:33:06.157Z,0.90
2022-07-28T02:34:07.739Z,0.80
2022-07-28T02:35:06.141Z,1.00
2022-07-28T02:36:06.124Z,1.30
2022-07-28T02:37:06.090Z,1.00
2022-07-28T02:38:06.095Z,1.00
2022-07-28T02:39:06.087Z,1.00
2022-07-28T02:40:06.111Z,1.00
2022-07-28T02:41:06.074Z,1.00
2022-07-28T02:42:06.015Z,1.10
2022-07-28T02:43:06.008Z,1.00
2022-07-28T02:44:05.974Z,1.20
2022-07-28T02:45:06.022Z,1.00
2022-07-28T02:46:06.008Z,1.00
2022-07-28T02:47:05.951Z,1.00
2022-07-28T02:48:05.947Z,1.00
2022-07-28T02:49:05.995Z,0.90
2022-07-28T02:50:05.975Z,1.00
2022-07-28T02:51:05.915Z,1.10
2022-07-28T02:52:05.952Z,1.30
2022-07-28T02:53:14.829Z,1.00
2022-07-28T02:54:05.869Z,1.30
2022-07-28T02:55:05.861Z,1.10
2022-07-28T02:56:05.836Z,1.10
2022-07-28T02:57:05.841Z,1.00
2022-07-28T02:58:05.819Z,1.00
2022-07-28T02:59:05.804Z,1.00
2022-07-28T03:00:05.800Z,1.00
2022-07-28T03:01:05.847Z,0.90
2022-07-28T03:02:05.772Z,1.10
2022-07-28T03:03:05.747Z,0.90
2022-07-28T03:04:05.780Z,1.10
2022-07-28T03:05:07.597Z,1.00
2022-07-28T03:06:05.740Z,1.10
2022-07-28T03:07:05.702Z,1.10
2022-07-28T03:08:05.710Z,1.10
2022-07-28T03:09:05.659Z,1.00
2022-07-28T03:10:05.680Z,1.10
2022-07-28T03:11:05.644Z,1.20
2022-07-28T03:12:05.619Z,1.20
2022-07-28T03:13:05.616Z,1.00
2022-07-28T03:14:05.618Z,1.00
2022-07-28T03:15:05.589Z,1.20
2022-07-28T03:16:05.557Z,1.20
2022-07-28T03:17:05.703Z,0.90
2022-07-28T03:18:05.551Z,0.80
2022-07-28T03:19:05.534Z,1.10
2022-07-28T03:20:05.511Z,0.90
2022-07-28T03:21:05.500Z,1.10
2022-07-28T03:22:05.522Z,1.20
2022-07-28T03:23:05.512Z,1.20
2022-07-28T03:24:05.499Z,1.10
2022-07-28T03:25:05.449Z,1.10
2022-07-28T03:26:05.471Z,1.00
2022-07-28T03:27:05.436Z,1.00
2022-07-28T03:28:05.406Z,1.40
2022-07-28T03:29:05.389Z,0.90
2022-07-28T03:30:05.413Z,1.10
2022-07-28T03:31:05.483Z,1.30
2022-07-28T03:32:05.349Z,1.20
2022-07-28T03:33:05.340Z,0.90
2022-07-28T03:34:05.441Z,0.90
2022-07-28T03:35:05.323Z,1.20
2022-07-28T03:36:05.323Z,1.10
2022-07-28T03:37:05.283Z,1.00
2022-07-28T03:38:05.305Z,1.00
2022-07-28T03:39:05.799Z,0.80
2022-07-28T03:40:05.246Z,1.30
2022-07-28T03:41:05.235Z,0.90
2022-07-28T03:42:05.259Z,1.00
2022-07-28T03:43:05.731Z,0.90
2022-07-28T03:44:05.187Z,1.40
2022-07-28T03:45:05.216Z,1.00
2022-07-28T03:46:07.583Z,0.80
2022-07-28T03:47:05.204Z,1.10
2022-07-28T03:48:05.160Z,1.10
2022-07-28T03:49:05.189Z,0.90
2022-07-28T03:50:05.126Z,1.00
2022-07-28T03:51:05.103Z,1.10
2022-07-28T03:52:05.091Z,1.10
2022-07-28T03:53:05.160Z,1.00
2022-07-28T03:54:05.079Z,1.30
2022-07-28T03:55:05.081Z,1.20
2022-07-28T03:56:05.051Z,1.00
2022-07-28T03:57:05.046Z,0.90
2022-07-28T03:58:05.008Z,1.10
2022-07-28T03:59:05.014Z,1.30
2022-07-28T04:00:09.498Z,1.10
2022-07-28T04:01:04.990Z,1.20
2022-07-28T04:02:05.063Z,1.10
2022-07-28T04:03:04.934Z,1.10
2022-07-28T04:04:05.007Z,0.90
2022-07-28T04:05:04.969Z,1.10
2022-07-28T04:06:04.908Z,1.00
2022-07-28T04:07:04.926Z,1.00
2022-07-28T04:08:04.892Z,1.00
2022-07-28T04:09:04.867Z,1.50
2022-07-28T04:10:04.868Z,1.00
2022-07-28T04:11:04.849Z,1.10
2022-07-28T04:12:04.843Z,1.20
2022-07-28T04:13:04.843Z,1.10
2022-07-28T04:14:04.800Z,1.00
2022-07-28T04:15:04.805Z,1.10
2022-07-28T04:16:04.772Z,1.10
2022-07-28T04:17:04.819Z,1.10
2022-07-28T04:18:04.767Z,1.30
2022-07-28T04:19:04.730Z,1.10
2022-07-28T04:20:04.725Z,1.20
2022-07-28T04:21:04.736Z,1.00
2022-07-28T04:22:04.703Z,1.00
2022-07-28T04:23:04.673Z,1.00
2022-07-28T04:24:04.657Z,1.30
2022-07-28T04:25:04.685Z,1.00
2022-07-28T04:26:04.663Z,1.00
2022-07-28T04:27:04.638Z,1.20
2022-07-28T04:28:05.519Z,1.00
2022-07-28T04:29:04.636Z,1.20
2022-07-28T04:30:04.600Z,1.60
2022-07-28T04:31:04.749Z,1.10
2022-07-28T04:32:04.581Z,0.90
2022-07-28T04:33:04.569Z,1.00
2022-07-28T04:34:04.638Z,1.10
2022-07-28T04:35:04.517Z,1.10
2022-07-28T04:36:04.528Z,1.40
2022-07-28T04:37:04.516Z,1.10
2022-07-28T04:38:04.940Z,1.10
2022-07-28T04:39:04.577Z,1.40
2022-07-28T04:40:04.485Z,1.10
2022-07-28T04:41:04.470Z,1.20
2022-07-28T04:42:04.440Z,1.00
2022-07-28T04:43:04.451Z,1.00
2022-07-28T04:44:04.405Z,1.80
2022-07-28T04:45:04.421Z,1.00
2022-07-28T04:46:04.443Z,1.10
2022-07-28T04:47:06.390Z,1.20
2022-07-28T04:48:04.422Z,1.00
2022-07-28T04:49:04.474Z,1.00
2022-07-28T04:50:04.322Z,1.10
2022-07-28T04:51:04.377Z,1.00
2022-07-28T04:52:04.325Z,1.60
2022-07-28T04:53:04.324Z,1.00
2022-07-28T04:54:04.294Z,1.00
2022-07-28T04:55:04.262Z,1.10
2022-07-28T04:56:04.327Z,1.00
2022-07-28T04:57:05.382Z,1.10
2022-07-28T04:58:04.326Z,1.10
2022-07-28T04:59:04.224Z,1.30
2022-07-28T05:00:04.189Z,1.10
2022-07-28T05:01:04.273Z,1.40
2022-07-28T05:02:04.209Z,1.20
2022-07-28T05:03:04.220Z,1.30
2022-07-28T05:04:04.208Z,1.30
2022-07-28T05:05:04.301Z,1.20
2022-07-28T05:06:04.105Z,1.00
2022-07-28T05:07:11.825Z,1.10
2022-07-28T05:08:04.160Z,1.30
2022-07-28T05:09:04.139Z,1.50
2022-07-28T05:10:04.083Z,1.20
2022-07-28T05:11:04.059Z,1.30
2022-07-28T05:12:04.040Z,1.20
2022-07-28T05:13:04.050Z,1.10
2022-07-28T05:14:04.021Z,1.10
2022-07-28T05:15:04.008Z,1.30
2022-07-28T05:16:04.037Z,1.10
2022-07-28T05:17:03.994Z,1.40
2022-07-28T05:18:03.977Z,1.20
2022-07-28T05:19:03.986Z,1.30
2022-07-28T05:20:03.947Z,1.40
2022-07-28T05:21:03.908Z,1.30
2022-07-28T05:22:03.910Z,1.00
2022-07-28T05:23:03.905Z,1.20
2022-07-28T05:24:03.870Z,1.30
2022-07-28T05:25:04.108Z,1.40
2022-07-28T05:26:03.853Z,1.00
2022-07-28T05:27:03.841Z,1.60
2022-07-28T05:28:03.879Z,1.00
2022-07-28T05:29:03.861Z,1.10
2022-07-28T05:30:03.875Z,1.10
2022-07-28T05:31:03.829Z,0.90
2022-07-28T05:32:16.453Z,1.10
2022-07-28T05:33:03.784Z,0.90
2022-07-28T05:34:03.748Z,1.00
2022-07-28T05:35:03.739Z,1.20
2022-07-28T05:36:03.748Z,1.10
2022-07-28T05:37:03.701Z,1.10
2022-07-28T05:38:08.845Z,1.30
2022-07-28T05:39:03.728Z,1.30
2022-07-28T05:40:03.684Z,1.30
2022-07-28T05:41:03.679Z,1.20
2022-07-28T05:42:03.739Z,0.90
2022-07-28T05:43:04.425Z,0.90
2022-07-28T05:44:03.665Z,1.00
2022-07-28T05:45:03.688Z,1.30
2022-07-28T05:46:03.704Z,0.90
2022-07-28T05:47:03.977Z,1.10
2022-07-28T05:48:03.573Z,1.00
2022-07-28T05:49:03.613Z,0.90
2022-07-28T05:50:03.565Z,1.90
2022-07-28T05:51:03.548Z,0.90
2022-07-28T05:52:03.571Z,1.00
2022-07-28T05:53:03.541Z,0.90
2022-07-28T05:54:03.467Z,0.90
2022-07-28T05:55:03.480Z,1.20
2022-07-28T05:56:03.443Z,0.90
2022-07-28T05:57:03.469Z,1.10
2022-07-28T05:58:03.490Z,1.10
2022-07-28T05:59:03.416Z,1.00
2022-07-28T06:00:03.454Z,1.00
2022-07-28T06:01:03.530Z,1.20
2022-07-28T06:02:03.451Z,1.00
2022-07-28T06:03:03.368Z,0.80
2022-07-28T06:04:26.634Z,1.40
2022-07-28T06:05:03.332Z,1.10
2022-07-28T06:06:14.851Z,1.10
2022-07-28T06:07:03.299Z,1.00
2022-07-28T06:08:03.313Z,0.80
2022-07-28T06:09:03.281Z,1.30
2022-07-28T06:10:03.278Z,1.10
2022-07-28T06:11:03.297Z,1.20
2022-07-28T06:12:03.239Z,0.90
2022-07-28T06:13:03.241Z,1.30
2022-07-28T06:14:03.241Z,1.20
2022-07-28T06:15:03.179Z,1.40
2022-07-28T06:16:03.262Z,1.20
2022-07-28T06:17:03.270Z,1.20
2022-07-28T06:18:03.173Z,1.10
2022-07-28T06:19:03.167Z,1.10
2022-07-28T06:20:03.239Z,0.90
2022-07-28T06:21:03.138Z,1.00
2022-07-28T06:22:03.141Z,1.30
2022-07-28T06:23:03.136Z,1.00
2022-07-28T06:24:03.086Z,1.10
2022-07-28T06:25:03.067Z,0.90
2022-07-28T06:26:03.050Z,1.10
2022-07-28T06:27:03.097Z,1.10
2022-07-28T06:28:03.077Z,1.40
2022-07-28T06:29:03.025Z,1.30
2022-07-28T06:30:02.993Z,1.00
2022-07-28T06:31:02.997Z,1.20
2022-07-28T06:32:03.103Z,1.10
2022-07-28T06:33:02.983Z,1.10
2022-07-28T06:34:02.970Z,1.10
2022-07-28T06:35:02.933Z,1.20
2022-07-28T06:36:02.926Z,1.00
2022-07-28T06:37:02.913Z,1.20
2022-07-28T06:38:02.929Z,1.30
2022-07-28T06:39:02.901Z,0.70
2022-07-28T06:40:02.935Z,1.00
2022-07-28T06:41:02.870Z,1.00
2022-07-28T06:42:02.827Z,1.30
2022-07-28T06:43:02.875Z,1.10
2022-07-28T06:44:02.807Z,1.20
2022-07-28T06:45:02.803Z,1.00
2022-07-28T06:46:02.804Z,1.50
2022-07-28T06:47:02.867Z,1.10
2022-07-28T06:48:02.814Z,1.20
2022-07-28T06:49:02.809Z,1.10
2022-07-28T06:50:02.783Z,1.60
2022-07-28T06:51:02.746Z,1.70
2022-07-28T06:52:02.705Z,1.30
2022-07-28T06:53:02.690Z,1.20
2022-07-28T06:54:04.836Z,1.00
2022-07-28T06:55:02.683Z,1.30
2022-07-28T06:56:02.660Z,1.10
2022-07-28T06:57:02.658Z,1.10
2022-07-28T06:58:02.643Z,1.20
2022-07-28T06:59:02.655Z,1.20
2022-07-28T07:00:02.604Z,1.10
2022-07-28T07:01:02.785Z,1.20
2022-07-28T07:02:02.583Z,1.20
2022-07-28T07:03:02.575Z,1.10
2022-07-28T07:04:02.669Z,1.00
2022-07-28T07:05:02.533Z,1.20
2022-07-28T07:06:02.583Z,1.10
2022-07-28T07:07:02.520Z,1.40
2022-07-28T07:08:02.501Z,1.10
2022-07-28T07:09:02.478Z,1.10
2022-07-28T07:10:02.533Z,1.20
2022-07-28T07:11:02.475Z,1.10
2022-07-28T07:12:02.436Z,1.10
2022-07-28T07:13:02.449Z,1.40
2022-07-28T07:14:02.758Z,1.30
2022-07-28T07:15:02.482Z,1.30
2022-07-28T07:16:02.452Z,1.20
2022-07-28T07:17:02.430Z,1.30
2022-07-28T07:18:02.381Z,1.20
2022-07-28T07:19:06.906Z,1.20
2022-07-28T07:20:02.351Z,1.50
2022-07-28T07:21:02.362Z,1.30
2022-07-28T07:22:02.327Z,1.20
2022-07-28T07:23:02.305Z,1.40
2022-07-28T07:24:02.270Z,1.40
2022-07-28T07:25:02.292Z,2.20
2022-07-28T07:26:02.317Z,1.40
2022-07-28T07:27:02.264Z,1.40
2022-07-28T07:28:02.255Z,1.20
2022-07-28T07:29:02.258Z,1.10
2022-07-28T07:30:02.207Z,1.40
2022-07-28T07:31:02.313Z,1.30
2022-07-28T07:32:04.574Z,1.40
2022-07-28T07:33:02.186Z,1.10
2022-07-28T07:34:02.177Z,1.30
2022-07-28T07:35:02.202Z,1.30
2022-07-28T07:36:02.154Z,1.40
2022-07-28T07:37:02.174Z,1.30
2022-07-28T07:38:02.135Z,1.20
2022-07-28T07:39:02.134Z,1.40
2022-07-28T07:40:02.084Z,1.30
2022-07-28T07:41:02.052Z,1.40
2022-07-28T07:42:02.095Z,1.10
2022-07-28T07:43:02.083Z,1.20
2022-07-28T07:44:02.045Z,1.40
2022-07-28T07:45:02.002Z,1.30
2022-07-28T07:46:02.042Z,1.30
2022-07-28T07:47:02.029Z,1.50
2022-07-28T07:48:01.992Z,2.20
2022-07-28T07:49:01.985Z,1.10
2022-07-28T07:50:04.348Z,1.70
2022-07-28T07:51:01.954Z,1.50
2022-07-28T07:52:01.924Z,1.90
2022-07-28T07:53:01.918Z,1.50
2022-07-28T07:54:01.928Z,1.40
2022-07-28T07:55:01.885Z,1.40
2022-07-28T07:56:01.886Z,1.50
2022-07-28T07:57:01.869Z,1.20
2022-07-28T07:58:01.869Z,1.50
2022-07-28T07:59:01.858Z,1.60
2022-07-28T08:00:01.816Z,1.70
2022-07-28T08:01:01.820Z,1.40
2022-07-28T08:02:01.934Z,1.40
2022-07-28T08:03:01.800Z,1.60
2022-07-28T08:04:01.853Z,1.30
2022-07-28T08:05:01.809Z,1.30
2022-07-28T08:06:01.789Z,1.10
2022-07-28T08:07:01.719Z,1.30
2022-07-28T08:08:01.718Z,1.40
2022-07-28T08:09:01.849Z,1.20
2022-07-28T08:10:01.729Z,1.40
2022-07-28T08:11:01.675Z,2.20
2022-07-28T08:12:01.677Z,1.60
2022-07-28T08:13:01.691Z,1.90
2022-07-28T08:14:01.655Z,1.90
2022-07-28T08:15:01.638Z,2.00
2022-07-28T08:16:01.760Z,1.60
2022-07-28T08:17:01.645Z,1.70
2022-07-28T08:18:01.620Z,1.80
2022-07-28T08:19:01.557Z,1.40
2022-07-28T08:20:01.561Z,1.50
2022-07-28T08:21:01.575Z,1.90
2022-07-28T08:22:01.556Z,1.50
2022-07-28T08:23:01.512Z,1.70
2022-07-28T08:24:01.508Z,1.90
2022-07-28T08:25:01.487Z,1.70
2022-07-28T08:26:01.474Z,1.50
2022-07-28T08:27:01.471Z,1.40
2022-07-28T08:28:01.505Z,1.80
2022-07-28T08:29:01.493Z,1.70
2022-07-28T08:30:01.436Z,1.50
2022-07-28T08:31:01.456Z,1.70
2022-07-28T08:32:01.414Z,2.80
2022-07-28T08:33:01.391Z,2.20
2022-07-28T08:34:01.393Z,2.00
2022-07-28T08:35:31.184Z,1.90
2022-07-28T08:36:01.351Z,1.90
2022-07-28T08:37:01.351Z,2.00
2022-07-28T08:38:01.353Z,2.00
2022-07-28T08:39:01.333Z,2.10
2022-07-28T08:40:01.303Z,1.80
2022-07-28T08:41:01.296Z,2.10
2022-07-28T08:42:01.267Z,2.20
2022-07-28T08:43:01.398Z,1.80
2022-07-28T08:44:01.274Z,2.00
2022-07-28T08:45:01.239Z,4.30
2022-07-28T08:46:01.278Z,2.50
2022-07-28T08:47:01.308Z,2.00
2022-07-28T08:48:09.692Z,2.10
2022-07-28T08:49:01.272Z,2.50
2022-07-28T08:50:01.190Z,6.60
2022-07-28T08:51:01.144Z,2.40
2022-07-28T08:52:01.142Z,1.80
2022-07-28T08:53:01.176Z,2.20
2022-07-28T08:54:01.180Z,2.00
2022-07-28T08:55:01.126Z,2.20
2022-07-28T08:56:01.097Z,1.90
2022-07-28T08:57:01.084Z,1.80
2022-07-28T08:58:01.072Z,2.00
2022-07-28T08:59:01.056Z,2.50
2022-07-28T09:00:01.081Z,2.20
2022-07-28T09:01:01.024Z,2.20
2022-07-28T09:02:01.129Z,2.10
2022-07-28T09:03:01.088Z,2.10
2022-07-28T09:04:01.024Z,2.00
2022-07-28T09:05:00.980Z,2.40
2022-07-28T09:06:00.970Z,2.20
2022-07-28T09:07:00.957Z,2.20
2022-07-28T09:08:00.929Z,2.10
2022-07-28T09:09:00.960Z,2.10
2022-07-28T09:10:02.871Z,2.20
2022-07-28T09:11:00.927Z,2.50
2022-07-28T09:12:00.924Z,2.80
2022-07-28T09:13:00.936Z,2.40
2022-07-28T09:14:00.902Z,2.30
2022-07-28T09:15:00.885Z,2.30
2022-07-28T09:16:00.936Z,2.30
2022-07-28T09:17:00.839Z,2.70
2022-07-28T09:18:01.506Z,2.00
2022-07-28T09:19:00.808Z,2.40
2022-07-28T09:20:00.753Z,2.30
2022-07-28T09:21:00.841Z,2.10
2022-07-28T09:22:00.771Z,2.20
2022-07-28T09:23:00.760Z,1.90
2022-07-28T09:24:00.739Z,2.20
2022-07-28T09:25:00.806Z,2.10
2022-07-28T09:26:00.783Z,2.10
2022-07-28T09:27:00.720Z,2.50
2022-07-28T09:28:00.715Z,2.60
2022-07-28T09:29:00.723Z,2.60
2022-07-28T09:30:00.636Z,2.20
2022-07-28T09:31:00.747Z,2.00
2022-07-28T09:32:00.689Z,2.70
2022-07-28T09:33:00.626Z,2.30
2022-07-28T09:34:00.608Z,2.10
2022-07-28T09:35:00.584Z,2.20
2022-07-28T09:36:00.600Z,2.40
2022-07-28T09:37:00.610Z,2.70
2022-07-28T09:38:00.557Z,2.50
2022-07-28T09:39:00.563Z,2.20
2022-07-28T09:40:00.532Z,2.20
2022-07-28T09:41:00.517Z,2.40
2022-07-28T09:42:00.531Z,2.10
2022-07-28T09:43:00.515Z,2.20
2022-07-28T09:44:00.500Z,2.20
2022-07-28T09:45:21.675Z,2.30
2022-07-28T09:46:00.478Z,2.40
2022-07-28T09:47:00.766Z,2.60
2022-07-28T09:48:00.572Z,2.00
2022-07-28T09:49:00.966Z,2.20
2022-07-28T09:50:00.524Z,2.30
2022-07-28T09:51:00.367Z,2.30
2022-07-28T09:52:00.397Z,2.10
2022-07-28T09:53:00.395Z,2.30
2022-07-28T09:54:00.348Z,2.50
2022-07-28T09:55:00.321Z,2.70
2022-07-28T09:56:00.338Z,2.50
2022-07-28T09:57:00.298Z,2.20
2022-07-28T09:58:00.297Z,2.40
2022-07-28T09:59:00.314Z,2.40
2022-07-28T10:00:00.263Z,2.20
2022-07-28T10:01:00.253Z,2.50
2022-07-28T10:02:00.952Z,2.40
2022-07-28T10:03:00.345Z,2.70
2022-07-28T10:04:02.705Z,2.50
2022-07-28T10:05:00.229Z,2.40
2022-07-28T10:06:00.234Z,2.40
2022-07-28T10:07:00.182Z,2.20
2022-07-28T10:08:00.163Z,2.70
2022-07-28T10:09:00.187Z,2.20
2022-07-28T10:10:00.191Z,2.40
2022-07-28T10:11:00.126Z,2.40
2022-07-28T10:12:00.119Z,2.60
2022-07-28T10:13:00.157Z,2.20
2022-07-28T10:14:00.089Z,2.30
2022-07-28T10:15:00.110Z,2.30
2022-07-28T10:16:00.156Z,2.60
2022-07-28T10:17:05.681Z,2.70
2022-07-28T10:18:00.117Z,2.60
2022-07-28T10:19:00.072Z,2.60
2022-07-28T10:20:00.453Z,2.90
2022-07-28T10:20:59.994Z,2.80
2022-07-28T10:21:59.997Z,2.60
2022-07-28T10:23:00.021Z,2.30
2022-07-28T10:23:59.992Z,2.70
2022-07-28T10:24:59.967Z,2.80
2022-07-28T10:25:59.981Z,2.80
2022-07-28T10:26:59.911Z,2.20
2022-07-28T10:27:59.939Z,2.50
2022-07-28T10:28:59.934Z,2.40
2022-07-28T10:29:59.913Z,2.70
2022-07-28T10:30:59.975Z,2.70
2022-07-28T10:31:59.847Z,2.30
2022-07-28T10:32:59.869Z,2.80
2022-07-28T10:33:59.873Z,2.40
2022-07-28T10:34:59.838Z,2.60
2022-07-28T10:35:59.803Z,2.70
2022-07-28T10:36:59.814Z,2.50
2022-07-28T10:37:59.777Z,2.90
2022-07-28T10:38:59.820Z,2.30
2022-07-28T10:39:59.751Z,2.50
2022-07-28T10:40:59.757Z,2.60
2022-07-28T10:41:59.755Z,2.80
2022-07-28T10:42:59.724Z,2.50
2022-07-28T10:43:59.714Z,2.50
2022-07-28T10:44:59.705Z,2.60
2022-07-28T10:46:09.675Z,3.10
2022-07-28T10:46:59.723Z,2.50
2022-07-28T10:47:59.679Z,2.40
2022-07-28T10:48:59.694Z,2.70
2022-07-28T10:49:59.643Z,2.60
2022-07-28T10:50:59.686Z,2.60
2022-07-28T10:52:08.834Z,2.40
2022-07-28T10:52:59.645Z,2.60
2022-07-28T10:53:59.565Z,2.40
2022-07-28T10:54:59.554Z,2.40
2022-07-28T10:55:59.554Z,2.70
2022-07-28T10:56:59.564Z,2.50
2022-07-28T10:58:02.113Z,2.40
2022-07-28T10:59:04.560Z,2.40
2022-07-28T11:00:05.269Z,2.50
2022-07-28T11:01:05.516Z,2.50
2022-07-28T11:01:59.611Z,2.50
2022-07-28T11:03:00.371Z,2.40
2022-07-28T11:03:59.519Z,2.60
2022-07-28T11:04:59.426Z,2.50
2022-07-28T11:05:59.419Z,2.30
2022-07-28T11:06:59.428Z,2.40
2022-07-28T11:07:59.393Z,2.80
2022-07-28T11:08:59.380Z,2.40
2022-07-28T11:09:59.370Z,2.50
2022-07-28T11:11:09.402Z,2.40
2022-07-28T11:11:59.398Z,2.70
2022-07-28T11:12:59.319Z,2.80
2022-07-28T11:13:59.384Z,2.80
2022-07-28T11:14:59.331Z,3.10
2022-07-28T11:15:59.301Z,2.70
2022-07-28T11:16:59.358Z,2.60
2022-07-28T11:17:59.429Z,2.60
2022-07-28T11:18:59.322Z,2.70
2022-07-28T11:20:25.155Z,2.50
2022-07-28T11:21:00.471Z,2.70
2022-07-28T11:21:59.213Z,3.20
2022-07-28T11:22:59.211Z,3.10
2022-07-28T11:23:59.202Z,2.90
2022-07-28T11:24:59.178Z,2.40
2022-07-28T11:25:59.170Z,3.20
2022-07-28T11:27:03.936Z,2.60
2022-07-28T11:27:59.179Z,2.60
2022-07-28T11:28:59.142Z,2.30
2022-07-28T11:29:59.149Z,2.60
2022-07-28T11:30:59.143Z,2.90
2022-07-28T11:31:59.096Z,2.60
2022-07-28T11:32:59.095Z,2.90
2022-07-28T11:33:59.052Z,2.80
2022-07-28T11:34:59.070Z,2.60
2022-07-28T11:35:59.086Z,2.80
2022-07-28T11:36:59.018Z,3.00
2022-07-28T11:37:59.025Z,2.50
2022-07-28T11:38:59.019Z,2.70
2022-07-28T11:39:58.998Z,2.60
2022-07-28T11:40:59.498Z,2.70
2022-07-28T11:41:58.948Z,2.70
2022-07-28T11:42:58.943Z,2.70
2022-07-28T11:43:58.920Z,2.80
2022-07-28T11:44:58.952Z,2.50
2022-07-28T11:45:58.967Z,2.40
2022-07-28T11:46:58.914Z,2.50
2022-07-28T11:47:58.856Z,2.60
2022-07-28T11:48:58.910Z,2.30
2022-07-28T11:49:58.865Z,2.60
2022-07-28T11:50:58.862Z,2.60
2022-07-28T11:51:58.844Z,2.60
2022-07-28T11:52:58.827Z,2.70
2022-07-28T11:53:58.863Z,2.80
2022-07-28T11:54:58.793Z,2.70
2022-07-28T11:56:02.919Z,2.90
2022-07-28T11:56:59.453Z,2.40
2022-07-28T11:57:58.754Z,2.70
2022-07-28T11:58:58.744Z,3.00
2022-07-28T11:59:58.737Z,2.40
2022-07-28T12:00:58.726Z,2.50
2022-07-28T12:01:58.761Z,2.50
2022-07-28T12:02:58.749Z,2.60
2022-07-28T12:03:59.129Z,2.50
2022-07-28T12:04:58.746Z,2.80
2022-07-28T12:05:58.667Z,2.50
2022-07-28T12:06:58.675Z,2.80
2022-07-28T12:07:58.619Z,2.50
2022-07-28T12:08:58.667Z,2.50
2022-07-28T12:09:58.615Z,2.70
2022-07-28T12:10:58.607Z,3.00
2022-07-28T12:11:58.593Z,2.70
2022-07-28T12:12:58.561Z,2.80
2022-07-28T12:13:59.485Z,3.10
2022-07-28T12:15:02.070Z,2.90
2022-07-28T12:15:58.545Z,2.70
2022-07-28T12:16:58.578Z,2.90
2022-07-28T12:17:58.517Z,2.70
2022-07-28T12:18:58.477Z,3.00
2022-07-28T12:19:58.485Z,2.90
2022-07-28T12:21:03.072Z,2.60
2022-07-28T12:21:58.448Z,3.20
2022-07-28T12:22:58.480Z,2.60
2022-07-28T12:23:58.433Z,2.70
2022-07-28T12:24:58.471Z,2.60
2022-07-28T12:25:58.416Z,2.50
2022-07-28T12:26:58.391Z,2.70
2022-07-28T12:27:58.365Z,3.10
2022-07-28T12:28:58.346Z,2.90
2022-07-28T12:29:58.383Z,3.00
2022-07-28T12:30:58.366Z,3.20
2022-07-28T12:31:58.352Z,2.40
2022-07-28T12:32:58.939Z,2.90
2022-07-28T12:33:59.338Z,2.80
2022-07-28T12:34:58.317Z,3.00
2022-07-28T12:35:58.282Z,2.70
2022-07-28T12:36:58.283Z,2.80
2022-07-28T12:37:58.231Z,2.70
2022-07-28T12:38:58.279Z,2.70
2022-07-28T12:39:58.267Z,2.60
2022-07-28T12:40:58.222Z,3.10
2022-07-28T12:41:58.228Z,2.90
2022-07-28T12:42:58.183Z,2.70
2022-07-28T12:43:58.208Z,3.00
2022-07-28T12:44:58.940Z,2.60
2022-07-28T12:45:58.216Z,2.80
2022-07-28T12:46:58.126Z,2.70
2022-07-28T12:47:58.108Z,2.70
2022-07-28T12:48:58.221Z,2.70
2022-07-28T12:50:00.511Z,3.50
2022-07-28T12:50:58.114Z,2.60
2022-07-28T12:51:58.084Z,2.60
2022-07-28T12:52:58.036Z,3.10
2022-07-28T12:53:58.038Z,3.00
2022-07-28T12:54:58.037Z,2.80
2022-07-28T12:55:58.059Z,2.80
2022-07-28T12:56:58.017Z,3.00
2022-07-28T12:57:57.984Z,2.70
2022-07-28T12:58:58.024Z,2.70
2022-07-28T12:59:57.968Z,2.50
2022-07-28T13:00:58.028Z,2.70
2022-07-28T13:01:57.988Z,3.20
2022-07-28T13:02:57.962Z,2.50
2022-07-28T13:03:57.914Z,2.60
2022-07-28T13:04:57.911Z,2.60
2022-07-28T13:05:57.906Z,2.90
2022-07-28T13:06:57.991Z,2.80
2022-07-28T13:07:57.929Z,2.60
2022-07-28T13:08:57.842Z,2.90
2022-07-28T13:10:00.447Z,2.50
2022-07-28T13:10:58.771Z,2.80
2022-07-28T13:11:57.829Z,2.90
2022-07-28T13:12:57.806Z,2.90
2022-07-28T13:13:57.783Z,2.80
2022-07-28T13:14:57.983Z,2.40
2022-07-28T13:15:57.769Z,2.80
2022-07-28T13:16:57.841Z,2.80
2022-07-28T13:17:57.802Z,2.80